Flight Track Log - Related Links

Times and Time Zones

All times are in EDT time to prevent confusion due to time zone crossing. See the UAL341 flight status page for this flight to view local times or setup timezone preferences in your user account.

Time Position Orientation Groundspeed Altitude Reporting Facility
EDT Latitude Longitude Course Direction KTS MPH feet Rate Location/Type
Fri 10:22:12 PM 39.8833 -104.6000 125° Southeast 160 184 6,900  Level Denver TRACON
Fri 10:22:30 PM 39.8742 -104.5831 125° Southeast 161 185 7,300 1,975 Climbing Denver Center
Fri 10:23:31 PM 39.8472 -104.5083 115° Southeast 229 264 9,500 1,902 Climbing Denver Center
Fri 10:24:33 PM 39.8089 -104.3986 114° Southeast 322 371 11,200 2,177 Climbing Denver Center
Fri 10:25:35 PM 39.7656 -104.2811 116° Southeast 359 413 14,000 2,806 Climbing Denver Center
Fri 10:26:37 PM 39.7250 -104.1525 112° Southeast 383 441 17,000 2,683 Climbing Denver Center
Fri 10:27:38 PM 39.6861 -104.0072 109° East 399 459 19,500 2,293 Climbing Denver Center
Fri 10:28:40 PM 39.6483 -103.8667 109° East 416 479 21,700 2,081 Climbing Denver Center
Fri 10:29:42 PM 39.6064 -103.7225 111° Southeast 411 473 23,800 1,902 Climbing Denver Center
Fri 10:30:43 PM 39.5658 -103.5731 109° East 434 499 25,600 1,561 Climbing Denver Center
Fri 10:31:45 PM 39.5231 -103.4175 110° East 452 520 27,000 1,645 Climbing Denver Center
Fri 10:32:47 PM 39.4789 -103.2594 110° East 460 529 29,000 1,756 Climbing Denver Center
Fri 10:33:48 PM 39.4344 -103.1006 110° East 465 535 30,600 1,561 Climbing Denver Center
Fri 10:34:50 PM 39.3881 -102.9389 110° East 472 543 32,200 1,161 Climbing Denver Center
Fri 10:35:52 PM 39.3417 -102.7772 110° East 475 547 33,000 390 Climbing Denver Center
Fri 10:36:53 PM 39.2883 -102.5933 110° East 467 537 33,000  Level Denver Center
Fri 10:37:55 PM 39.2450 -102.4436 110° East 466 536 33,000  Level Denver Center
Fri 10:38:57 PM 39.2011 -102.2933 111° Southeast 469 540 33,000  Level Denver Center
Fri 10:39:58 PM 39.1508 -102.1200 110° East 464 534 33,000  Level Denver Center
Fri 10:41:00 PM 39.1069 -101.9703 111° Southeast 466 536 33,000  Level Denver Center
Fri 10:42:01 PM 39.0542 -101.7967 111° Southeast 466 536 33,000  Level Denver Center
Fri 10:43:03 PM 39.0092 -101.6478 111° Southeast 465 535 33,000  Level Denver Center
Fri 10:44:04 PM 38.9653 -101.4981 111° Southeast 467 537 33,000  Level Denver Center
Fri 10:45:06 PM 38.9136 -101.3239 111° Southeast 467 537 33,000  Level Denver Center
Fri 10:46:07 PM 38.8681 -101.1744 111° Southeast 467 537 33,000  Level Denver Center
Fri 10:47:09 PM 38.8153 -101.0031 112° Southeast 464 534 33,000  Level Denver Center
Fri 10:48:10 PM 38.7692 -100.8533 112° Southeast 470 541 33,000  Level Denver Center
Fri 10:49:12 PM 38.7233 -100.7047 112° Southeast 468 539 33,000  Level Denver Center
Fri 10:50:13 PM 38.6694 -100.5303 112° Southeast 472 543 33,000  Level Denver Center
Fri 10:51:15 PM 38.6242 -100.3831 111° Southeast 465 535 33,000  Level Denver Center
Fri 10:52:16 PM 38.5700 -100.2122 112° Southeast 464 534 33,000  Level Denver Center
Fri 10:53:18 PM 38.5233 -100.0650 112° Southeast 465 535 33,000  Level Denver Center
Fri 10:54:19 PM 38.4769 -99.9192 112° Southeast 464 534 33,000  Level Denver Center
Fri 10:54:59 PM 38.4361 -99.7936 113° Southeast 466 536 33,000  Level Kansas City Center
Fri 10:56:00 PM 38.3883 -99.6483 113° Southeast 465 535 33,000  Level Kansas City Center
Fri 10:57:01 PM 38.3419 -99.5044 112° Southeast 461 531 33,000 -344 Level Kansas City Center
Fri 10:58:02 PM 38.2939 -99.3544 112° Southeast 459 528 32,300 -1,377 Descending Kansas City Center
Fri 10:59:03 PM 38.2450 -99.2061 113° Southeast 456 525 30,200 -2,115 Descending Kansas City Center
Fri 11:00:04 PM 38.1972 -99.0586 112° Southeast 454 522 28,000 -2,164 Descending Kansas City Center
Fri 11:01:05 PM 38.1486 -98.9117 113° Southeast 452 520 25,800 -2,164 Descending Kansas City Center
Fri 11:02:06 PM 38.1017 -98.7697 113° Southeast 442 509 23,600 -2,213 Descending Kansas City Center
Fri 11:03:07 PM 38.0556 -98.6308 113° Southeast 432 497 21,300 -2,640 Descending Kansas City Center
Fri 11:03:46 PM 38.0192 -98.5208 113° Southeast 420 483 19,200 -2,951 Descending Kansas City Center
Fri 11:04:08 PM 38.0031 -98.4692 112° Southeast 418 481 18,300 -2,556 Descending Kansas City Center
Fri 11:04:40 PM 37.9789 -98.3994 114° Southeast 404 465 16,900 -2,164 Descending Kansas City Center
Fri 11:05:09 PM 37.9600 -98.3389 112° Southeast 404 465 16,100 -2,164 Descending Kansas City Center
Fri 11:05:41 PM 37.9364 -98.2756 115° Southeast 382 440 14,700 -2,656 Descending Kansas City Center
Fri 11:06:10 PM 37.9189 -98.2178 111° Southeast 381 438 13,400 -2,600 Descending Kansas City Center
Fri 11:06:41 PM 37.8958 -98.1517 114° Southeast 376 433 12,100 -1,770 Descending Kansas City Center
Fri 11:07:11 PM 37.8783 -98.0983 113° Southeast 375 432 11,600 -1,082 Descending Kansas City Center
Fri 11:07:42 PM 37.8561 -98.0408 116° Southeast 344 396 11,000 -984 Descending Kansas City Center
Fri 11:08:12 PM 37.8436 -97.9931 108° East 333 383 10,600 -1,600 Descending Kansas City Center
Fri 11:08:42 PM 37.8217 -97.9400 118° Southeast 300 345 9,400 -2,164 Descending Kansas City Center
Fri 11:09:13 PM 37.8103 -97.8975 109° East 307 353 8,400 -2,836 Descending Kansas City Center
Fri 11:09:37 PM 37.7922 -97.8492 115° Southeast 299 344 6,800 -2,557 Descending Kansas City Center
Fri 11:10:14 PM 37.7764 -97.8011 113° Southeast 306 352 5,800 -1,967 Descending Kansas City Center
Fri 11:10:38 PM 37.7519 -97.7572 125° Southeast 296 341 4,800 -1,846 Descending Kansas City Center
Fri 11:11:32 PM 37.7133 -97.6811 123° Southeast 280 322 3,400 -1,102 Descending Kansas City Center
Fri 11:12:16 PM 37.6878 -97.6389 127° Southeast 276 318 3,000 -393 Descending Kansas City Center
Fri 11:12:33 PM 37.6667 -97.6114 134° Southeast 249 287 3,000  Level Kansas City Center

Login

Don't have an account? Register now (free) for customized features, flight alerts, and more!